createdAt,value
2023-03-26T00:02:23.531Z,95532.21
2023-03-26T00:04:53.201Z,95532.58
2023-03-26T00:07:22.877Z,95530.56
2023-03-26T00:09:51.183Z,95527.25
2023-03-26T00:12:19.381Z,95528.11
2023-03-26T00:14:47.328Z,95524.81
2023-03-26T00:17:15.519Z,95526.30
2023-03-26T00:19:44.148Z,95521.80
2023-03-26T00:22:14.249Z,95529.34
2023-03-26T00:24:45.929Z,95527.87
2023-03-26T00:27:14.575Z,95524.21
2023-03-26T00:29:49.948Z,95528.15
2023-03-26T00:32:18.429Z,95530.15
2023-03-26T00:34:47.833Z,95527.45
2023-03-26T00:37:15.913Z,95531.57
2023-03-26T00:39:44.618Z,95531.79
2023-03-26T00:42:14.949Z,95532.73
2023-03-26T00:44:43.190Z,95525.24
2023-03-26T00:47:11.056Z,95525.09
2023-03-26T00:49:39.434Z,95524.39
2023-03-26T00:52:08.745Z,95521.48
2023-03-26T00:54:37.457Z,95527.46
2023-03-26T00:57:06.773Z,95523.21
2023-03-26T00:59:36.584Z,95528.00
2023-03-26T01:02:05.012Z,95523.38
2023-03-26T01:04:35.116Z,95524.36
2023-03-26T01:07:11.663Z,95524.73
2023-03-26T01:09:45.144Z,95524.52
2023-03-26T01:12:17.194Z,95523.48
2023-03-26T01:14:47.649Z,95526.73
2023-03-26T01:17:17.024Z,95526.61
2023-03-26T01:20:06.069Z,95526.38
2023-03-26T01:22:36.723Z,95527.30
2023-03-26T01:25:05.493Z,95520.55
2023-03-26T01:27:50.091Z,95516.79
2023-03-26T01:30:41.584Z,95517.77
2023-03-26T01:33:30.423Z,95521.67
2023-03-26T01:36:32.002Z,95526.80
2023-03-26T01:39:42.060Z,95524.15
2023-03-26T01:42:40.592Z,95523.67
2023-03-26T01:45:37.995Z,95529.84
2023-03-26T01:48:57.039Z,95532.88
2023-03-26T01:52:06.041Z,95532.45
2023-03-26T01:54:58.992Z,95538.81
2023-03-26T01:57:53.251Z,95545.74
2023-03-26T02:01:11.042Z,95541.33
2023-03-26T02:04:19.979Z,95541.38
2023-03-26T02:07:29.027Z,95536.57
2023-03-26T02:10:31.018Z,95537.36
2023-03-26T02:13:14.237Z,95542.38
2023-03-26T02:16:23.337Z,95543.23
2023-03-26T02:19:35.024Z,95541.96
2023-03-26T02:22:46.900Z,95537.19
2023-03-26T02:25:44.078Z,95538.55
2023-03-26T02:28:39.042Z,95536.08
2023-03-26T02:31:53.124Z,95532.75
2023-03-26T02:35:05.086Z,95529.43
2023-03-26T02:37:51.422Z,95537.31
2023-03-26T02:40:41.092Z,95540.26
2023-03-26T02:43:30.801Z,95547.23
2023-03-26T02:46:32.156Z,95551.17
2023-03-26T02:49:38.030Z,95550.97
2023-03-26T02:53:04.018Z,95556.73
2023-03-26T02:56:36.087Z,95558.52
2023-03-26T03:03:40.143Z,95568.02
2023-03-26T03:07:28.100Z,95569.27
2023-03-26T03:11:04.066Z,95572.66
2023-03-26T03:14:36.035Z,95577.79
2023-03-26T03:18:07.116Z,95576.74
2023-03-26T03:21:38.439Z,95575.91
2023-03-26T03:24:33.029Z,95573.10
2023-03-26T03:27:13.828Z,95568.09
2023-03-26T03:30:12.994Z,95568.96
2023-03-26T03:33:19.085Z,95564.91
2023-03-26T03:36:31.715Z,95560.86
2023-03-26T03:39:47.974Z,95558.95
2023-03-26T03:43:21.168Z,95560.68
2023-03-26T03:47:01.988Z,95558.94
2023-03-26T03:50:37.052Z,95563.36
2023-03-26T03:54:10.071Z,95565.08
2023-03-26T03:57:46.532Z,95562.66
2023-03-26T04:01:14.074Z,95569.95
2023-03-26T04:08:43.051Z,95572.27
2023-03-26T04:12:30.042Z,95569.16
2023-03-26T04:16:12.800Z,95576.77
2023-03-26T04:19:56.008Z,95584.59
2023-03-26T04:23:25.099Z,95579.29
2023-03-26T04:27:01.022Z,95588.17
2023-03-26T04:30:48.017Z,95585.03
2023-03-26T04:33:30.312Z,95585.78
2023-03-26T04:36:02.634Z,95587.86
2023-03-26T04:38:40.455Z,95592.89
2023-03-26T04:41:12.441Z,95594.97
2023-03-26T04:43:50.483Z,95599.19
2023-03-26T04:46:28.232Z,95597.05
2023-03-26T04:49:04.956Z,95599.48
2023-03-26T04:51:38.482Z,95599.59
2023-03-26T04:54:16.363Z,95603.45
2023-03-26T04:56:56.775Z,95610.36
2023-03-26T04:59:35.096Z,95603.17
2023-03-26T05:02:06.462Z,95600.95
2023-03-26T05:04:43.896Z,95605.53
2023-03-26T05:07:16.940Z,95607.77
2023-03-26T05:09:48.527Z,95609.98
2023-03-26T05:12:17.756Z,95610.17
2023-03-26T05:14:57.601Z,95609.56
2023-03-26T05:17:41.500Z,95616.31
2023-03-26T05:20:20.959Z,95623.98
2023-03-26T05:22:50.237Z,95626.06
2023-03-26T05:25:24.493Z,95620.14
2023-03-26T05:27:52.836Z,95626.35
2023-03-26T05:30:22.273Z,95625.63
2023-03-26T05:32:54.403Z,95624.70
2023-03-26T05:35:26.601Z,95624.26
2023-03-26T05:37:54.778Z,95619.27
2023-03-26T05:40:24.746Z,95619.74
2023-03-26T05:42:57.774Z,95619.42
2023-03-26T05:45:30.611Z,95624.52
2023-03-26T05:47:59.782Z,95625.63
2023-03-26T05:50:27.592Z,95627.50
2023-03-26T05:52:59.129Z,95630.34
2023-03-26T05:55:40.844Z,95624.98
2023-03-26T05:58:30.856Z,95623.85
2023-03-26T06:01:17.120Z,95620.81
2023-03-26T06:04:05.404Z,95617.02
2023-03-26T06:06:39.251Z,95617.52
2023-03-26T06:09:07.825Z,95619.52
2023-03-26T06:11:35.815Z,95618.61
2023-03-26T06:14:05.718Z,95615.13
2023-03-26T06:16:34.205Z,95613.73
2023-03-26T06:19:13.644Z,95613.20
2023-03-26T06:21:53.807Z,95615.60
2023-03-26T06:24:26.060Z,95610.64
2023-03-26T06:27:04.182Z,95608.23
2023-03-26T06:29:49.251Z,95609.43
2023-03-26T06:32:21.483Z,95615.05
2023-03-26T06:34:54.159Z,95620.92
2023-03-26T06:37:22.348Z,95622.66
2023-03-26T06:39:54.256Z,95625.96
2023-03-26T06:43:08.575Z,95627.61
2023-03-26T06:45:39.696Z,95630.91
2023-03-26T06:48:25.901Z,95632.89
2023-03-26T06:51:13.829Z,95636.56
2023-03-26T06:53:55.983Z,95635.77
2023-03-26T06:56:36.194Z,95634.77
2023-03-26T06:59:21.463Z,95634.92
2023-03-26T07:02:11.468Z,95641.52
2023-03-26T07:04:56.453Z,95637.27
2023-03-26T07:07:45.964Z,95641.30
2023-03-26T07:10:27.098Z,95643.08
2023-03-26T07:13:14.901Z,95650.69
2023-03-26T07:16:03.124Z,95648.88
2023-03-26T07:18:40.247Z,95650.64
2023-03-26T07:21:11.626Z,95652.84
2023-03-26T07:23:39.814Z,95649.00
2023-03-26T07:26:36.536Z,95658.80
2023-03-26T07:29:48.388Z,95666.46
2023-03-26T07:32:51.187Z,95659.98
2023-03-26T07:36:05.989Z,95659.83
2023-03-26T07:39:12.631Z,95669.24
2023-03-26T07:42:26.398Z,95664.54
2023-03-26T07:45:27.483Z,95662.80
2023-03-26T07:48:25.486Z,95669.80
2023-03-26T07:51:11.753Z,95675.59
2023-03-26T07:53:50.627Z,95667.46
2023-03-26T07:56:38.752Z,95670.14
2023-03-26T07:59:31.251Z,95669.74
2023-03-26T08:02:35.325Z,95667.63
2023-03-26T08:05:28.342Z,95664.82
2023-03-26T08:08:21.886Z,95662.57
2023-03-26T08:11:44.247Z,95665.52
2023-03-26T08:14:27.783Z,95658.39
2023-03-26T08:17:07.957Z,95656.34
2023-03-26T08:19:49.156Z,95649.41
2023-03-26T08:22:26.338Z,95655.70
2023-03-26T08:25:25.598Z,95653.24
2023-03-26T08:28:10.681Z,95650.80
2023-03-26T08:30:38.684Z,95649.58
2023-03-26T08:33:18.147Z,95650.32
2023-03-26T08:35:47.191Z,95646.82
2023-03-26T08:38:20.769Z,95639.52
2023-03-26T08:41:26.232Z,95640.63
2023-03-26T08:44:18.499Z,95636.75
2023-03-26T08:47:09.907Z,95635.96
2023-03-26T08:50:06.429Z,95633.66
2023-03-26T08:52:57.962Z,95632.24
2023-03-26T08:55:43.675Z,95626.90
2023-03-26T08:58:47.439Z,95627.21
2023-03-26T09:01:40.260Z,95626.10
2023-03-26T09:04:34.357Z,95629.45
2023-03-26T09:07:28.554Z,95631.17
2023-03-26T09:10:19.248Z,95629.75
2023-03-26T09:13:18.079Z,95638.08
2023-03-26T09:16:18.160Z,95632.75
2023-03-26T09:19:11.403Z,95637.52
2023-03-26T09:22:08.176Z,95644.54
2023-03-26T09:24:59.715Z,95636.10
2023-03-26T09:28:01.742Z,95632.95
2023-03-26T09:31:09.425Z,95629.95
2023-03-26T09:34:02.575Z,95646.58
2023-03-26T09:36:54.444Z,95636.94
2023-03-26T09:39:37.496Z,95645.28
2023-03-26T09:42:17.158Z,95642.24
2023-03-26T09:45:14.802Z,95643.08
2023-03-26T09:48:05.645Z,95630.08
2023-03-26T09:51:10.260Z,95643.56
2023-03-26T09:54:01.020Z,95661.71
2023-03-26T09:56:50.781Z,95642.52
2023-03-26T09:59:40.711Z,95640.61
2023-03-26T10:02:46.330Z,95642.36
2023-03-26T10:05:42.744Z,95628.30
2023-03-26T10:08:32.220Z,95631.55
2023-03-26T10:11:14.666Z,95639.39
2023-03-26T10:14:01.241Z,95624.91
2023-03-26T10:16:51.340Z,95631.86
2023-03-26T10:19:31.267Z,95626.67
2023-03-26T10:22:20.626Z,95627.86
2023-03-26T10:25:22.467Z,95619.52
2023-03-26T10:28:16.574Z,95614.80
2023-03-26T10:31:22.697Z,95614.13
2023-03-26T10:34:28.035Z,95610.47
2023-03-26T10:37:08.654Z,95608.05
2023-03-26T10:40:13.263Z,95609.64
2023-03-26T10:43:03.415Z,95608.20
2023-03-26T10:45:55.964Z,95613.90
2023-03-26T10:48:47.718Z,95610.84
2023-03-26T10:51:34.937Z,95621.38
2023-03-26T10:54:15.630Z,95611.92
2023-03-26T10:56:47.641Z,95639.27
2023-03-26T10:59:17.297Z,95624.98
2023-03-26T11:02:29.968Z,95616.83
2023-03-26T11:05:28.853Z,95620.82
2023-03-26T11:08:05.402Z,95617.17
2023-03-26T11:10:54.680Z,95611.50
2023-03-26T11:13:42.212Z,95606.35
2023-03-26T11:16:24.225Z,95605.04
2023-03-26T11:19:05.770Z,95625.44
2023-03-26T11:22:44.728Z,95611.48
2023-03-26T11:26:23.037Z,95595.53
2023-03-26T11:29:33.699Z,95613.98
2023-03-26T11:33:04.174Z,95598.56
2023-03-26T11:37:02.143Z,95591.20
2023-03-26T11:41:07.321Z,95593.84
2023-03-26T11:44:40.486Z,95579.81
2023-03-26T11:48:14.067Z,95593.77
2023-03-26T11:52:19.826Z,95594.12
2023-03-26T11:55:24.988Z,95583.20
2023-03-26T11:57:58.518Z,95585.59
2023-03-26T12:00:30.950Z,95590.46
2023-03-26T12:02:59.452Z,95574.09
2023-03-26T12:05:33.566Z,95577.92
2023-03-26T12:08:17.827Z,95586.18
2023-03-26T12:11:08.860Z,95577.33
2023-03-26T12:13:44.956Z,95572.55
2023-03-26T12:16:20.857Z,95578.36
2023-03-26T12:18:59.196Z,95575.47
2023-03-26T12:21:30.462Z,95578.44
2023-03-26T12:28:38.286Z,95579.13
2023-03-26T12:32:45.805Z,95576.35
2023-03-26T12:36:14.056Z,95561.16
2023-03-26T12:40:25.083Z,95570.96
2023-03-26T12:44:46.780Z,95574.42
2023-03-26T12:48:00.298Z,95574.03
2023-03-26T12:51:09.233Z,95569.81
2023-03-26T12:54:55.414Z,95556.80
2023-03-26T12:58:26.640Z,95545.04
2023-03-26T13:02:32.129Z,95540.63
2023-03-26T13:06:19.558Z,95548.41
2023-03-26T13:10:13.372Z,95532.70
2023-03-26T13:14:36.473Z,95528.36
2023-03-26T13:19:00.034Z,95532.92
2023-03-26T13:22:56.422Z,95530.52
2023-03-26T13:25:45.259Z,95530.30
2023-03-26T13:28:35.262Z,95540.15
2023-03-26T13:31:16.594Z,95532.80
2023-03-26T13:33:59.243Z,95528.70
2023-03-26T13:37:04.313Z,95518.34
2023-03-26T13:39:46.184Z,95519.71
2023-03-26T13:42:36.692Z,95508.87
2023-03-26T13:45:24.284Z,95499.32
2023-03-26T13:47:57.008Z,95499.36
2023-03-26T13:50:34.726Z,95493.65
2023-03-26T13:53:12.786Z,95487.36
2023-03-26T13:55:47.068Z,95488.45
2023-03-26T13:58:36.267Z,95486.36
2023-03-26T14:01:13.090Z,95482.96
2023-03-26T14:03:55.368Z,95481.61
2023-03-26T14:06:54.052Z,95478.83
2023-03-26T14:09:34.564Z,95483.77
2023-03-26T14:12:26.747Z,95481.10
2023-03-26T14:15:06.347Z,95470.40
2023-03-26T14:17:56.666Z,95482.46
2023-03-26T14:20:56.927Z,95474.37
2023-03-26T14:23:44.290Z,95464.77
2023-03-26T14:26:37.730Z,95466.29
2023-03-26T14:29:37.989Z,95457.71
2023-03-26T14:32:40.626Z,95459.76
2023-03-26T17:12:35.975Z,95469.49
2023-03-26T17:16:31.000Z,95481.70
2023-03-26T17:20:16.016Z,95488.35
2023-03-26T17:34:42.331Z,95504.77
2023-03-26T17:38:32.988Z,95500.11
2023-03-26T17:42:13.349Z,95492.14
2023-03-26T17:46:09.084Z,95494.00
2023-03-26T17:50:04.932Z,95484.77
2023-03-26T17:53:44.418Z,95476.52
2023-03-26T17:57:47.022Z,95474.36
2023-03-26T18:01:17.063Z,95472.25
2023-03-26T18:04:58.978Z,95474.95
2023-03-26T18:08:39.043Z,95468.80
2023-03-26T18:12:08.013Z,95462.10
2023-03-26T18:15:40.094Z,95460.92
2023-03-26T18:19:09.243Z,95459.55
2023-03-26T18:22:49.036Z,95452.45
2023-03-26T18:26:19.946Z,95448.94
2023-03-26T18:29:56.038Z,95448.06
2023-03-26T18:33:19.008Z,95445.34
2023-03-26T18:36:48.991Z,95446.05
2023-03-26T18:40:16.091Z,95442.02
2023-03-26T18:43:49.011Z,95447.95
2023-03-26T18:47:12.034Z,95447.09
2023-03-26T18:50:47.126Z,95444.08
2023-03-26T18:54:23.971Z,95441.89
2023-03-26T18:58:00.990Z,95437.04
2023-03-26T19:01:31.114Z,95436.02
2023-03-26T19:05:00.084Z,95434.71
2023-03-26T19:08:39.119Z,95428.86
2023-03-26T19:12:13.025Z,95425.20
2023-03-26T19:15:47.113Z,95423.38
2023-03-26T19:19:39.014Z,95418.86
2023-03-26T19:23:11.035Z,95412.90
2023-03-26T19:26:40.036Z,95410.88
2023-03-26T19:30:13.010Z,95406.90
2023-03-26T19:33:42.030Z,95397.77
2023-03-26T19:37:14.999Z,95395.45
2023-03-26T19:40:47.397Z,95393.61
2023-03-26T19:43:50.938Z,95386.50
2023-03-26T19:46:24.033Z,95384.98
2023-03-26T19:48:54.333Z,95378.52
2023-03-26T19:51:30.961Z,95373.73
2023-03-26T19:54:00.806Z,95371.81
2023-03-26T19:56:29.689Z,95368.94
2023-03-26T19:58:59.137Z,95372.73
2023-03-26T20:01:30.383Z,95372.16
2023-03-26T20:04:04.175Z,95371.35
2023-03-26T20:06:43.266Z,95365.75
2023-03-26T20:09:14.221Z,95363.91
2023-03-26T20:11:42.780Z,95361.47
2023-03-26T20:14:25.801Z,95356.27
2023-03-26T20:16:55.103Z,95353.13
2023-03-26T20:19:23.855Z,95351.05
2023-03-26T20:21:53.074Z,95353.83
2023-03-26T20:24:21.654Z,95352.88
2023-03-26T20:26:49.633Z,95349.20
2023-03-26T20:29:19.807Z,95344.92
2023-03-26T20:31:49.303Z,95345.11
2023-03-26T20:34:20.606Z,95346.63
2023-03-26T20:36:55.257Z,95341.38
2023-03-26T20:39:24.507Z,95336.23
2023-03-26T20:41:54.511Z,95329.05
2023-03-26T20:44:22.653Z,95325.61
2023-03-26T20:46:50.797Z,95320.72
2023-03-26T20:49:22.024Z,95315.54
2023-03-26T20:51:50.066Z,95315.42
2023-03-26T20:54:21.749Z,95310.67
2023-03-26T20:56:51.192Z,95312.45
2023-03-26T20:59:26.257Z,95316.11
2023-03-26T21:01:57.348Z,95312.23
2023-03-26T21:04:42.985Z,95306.27
2023-03-26T21:07:17.802Z,95302.52
2023-03-26T21:09:48.687Z,95298.44
2023-03-26T21:12:34.886Z,95297.14
2023-03-26T21:15:10.344Z,95298.75
2023-03-26T21:17:45.777Z,95296.39
2023-03-26T21:20:16.740Z,95294.98
2023-03-26T21:23:05.610Z,95291.99
2023-03-26T21:26:17.711Z,95291.96
2023-03-26T21:28:48.931Z,95284.84
2023-03-26T21:31:20.597Z,95280.29
2023-03-26T21:33:50.499Z,95279.38
2023-03-26T21:36:19.947Z,95275.39
2023-03-26T21:38:50.477Z,95272.05
2023-03-26T21:41:36.577Z,95266.84
2023-03-26T21:44:19.536Z,95268.98
2023-03-26T21:46:49.568Z,95266.79
2023-03-26T21:49:18.227Z,95269.41
2023-03-26T21:51:47.269Z,95263.49
2023-03-26T21:54:25.915Z,95261.02
2023-03-26T21:57:27.291Z,95258.55
2023-03-26T22:00:17.159Z,95255.59
2023-03-26T22:02:54.830Z,95247.36
2023-03-26T22:05:32.968Z,95237.73
2023-03-26T22:08:03.233Z,95232.23
2023-03-26T22:10:32.761Z,95225.64
2023-03-26T22:13:00.999Z,95216.81
2023-03-26T22:15:31.267Z,95206.62
2023-03-26T22:18:02.578Z,95203.80
2023-03-26T22:20:31.418Z,95198.75
2023-03-26T22:23:08.222Z,95197.46
2023-03-26T22:25:36.040Z,95191.10
2023-03-26T22:28:04.480Z,95187.73
2023-03-26T22:30:33.636Z,95184.44
2023-03-26T22:33:01.863Z,95178.91
2023-03-26T22:35:31.265Z,95178.45
2023-03-26T22:38:01.357Z,95179.74
2023-03-26T22:40:29.465Z,95175.38
2023-03-26T22:42:57.470Z,95173.23
2023-03-26T22:45:26.244Z,95170.80
2023-03-26T22:48:03.875Z,95171.69
2023-03-26T22:50:33.093Z,95171.75
2023-03-26T22:53:01.100Z,95174.73
2023-03-26T22:55:30.011Z,95169.70
2023-03-26T22:57:58.589Z,95163.39
2023-03-26T23:00:26.815Z,95156.83
2023-03-26T23:03:00.517Z,95153.86
2023-03-26T23:05:29.312Z,95149.48
2023-03-26T23:07:57.828Z,95145.95
2023-03-26T23:10:26.617Z,95142.83
2023-03-26T23:12:56.532Z,95135.47
2023-03-26T23:15:26.078Z,95126.55
2023-03-26T23:17:55.025Z,95125.42
2023-03-26T23:20:40.006Z,95125.68
2023-03-26T23:23:09.478Z,95134.25
2023-03-26T23:25:37.564Z,95126.16
2023-03-26T23:28:05.886Z,95119.45
2023-03-26T23:30:40.574Z,95113.30
2023-03-26T23:33:11.063Z,95113.04
2023-03-26T23:35:39.308Z,95109.20
2023-03-26T23:38:08.281Z,95104.57
2023-03-26T23:40:36.193Z,95107.25
2023-03-26T23:43:12.002Z,95107.58
2023-03-26T23:45:40.539Z,95104.43
2023-03-26T23:48:08.588Z,95108.58
2023-03-26T23:50:37.836Z,95108.71
2023-03-26T23:53:07.316Z,95105.50
2023-03-26T23:55:36.248Z,95110.40
2023-03-26T23:58:04.526Z,95104.88
